Ecault (62) - E

Date : 03/03/2013
Distance : 3,800 km

Place Nom Licence Catégorie Club Temps min/km CN à J-60 Points Différence Nouveau CN
1 WATRELOT Luc 26160 H14 6205NO 0:46:42 12'17 3333 4623 +1290 3796
2 SAINT-UPERY Patrick 1953 H60 9502IF 0:47:22 12'27 4961 4558 -403 4952
3 URVOY Mateo 22540 H14 6203NO 0:54:38 14'22 2753 3952 +1199 3096
4 EJSMONT Jean 5597 H65 6203NO 1:01:59 16'18 3951 3483 -468 3951
5 HUMBERTCLAUDE J-Paul 16205 H65 5909NO 1:04:26 16'57 4289 3351 -938 4305
6 DE BEAUPUIS Joséphine 25974 D14 6205NO 1:13:30 19'20 2618 2938 +320 2774
7 LEROY Odile 7216 D50 5907NO 1:13:51 19'26 3476 2924 -552 3225
8 LOUCHART Auguste 23662 H16 5906NO 1:23:39 22'00 2581 0
9 GERBEAUX Jean-paul 23596 H60 6205NO 1:28:53 23'23 3364 2429 -935 3320
10 DEPERSIN Isabelle 17899 D40 5907NO 1:30:26 23'47 2388 0
11 POULAIN Odile 1948 D50 5909NO 1:30:51 23'54 2962 2377 -585 2863
12 VEROVE Apolline 24071 D14 5907NO 1:31:38 24'06 2291 2356 +65 2247
13 GERBEAUX Marie-jeanne 22417 D60 6205NO 1:33:27 24'35 3180 2311 -869 3180
14 DEPREZ Alix 25462 D16 5906NO 1:35:44 25'11 2636 2255 -381 2666
15 VANOVERBERGHE Mathilde 22238 D16 6203NO 1:37:57 25'46 2471 2204 -267 2309
16 PRUVOST Mathis 25973 H14 6205NO 1:45:23 27'43 2213 2049 -164 2145
17 LAMINETTE M-Odile 17201 D50 5907NO 1:46:42 28'04 2949 2024 -925 2949
18 LUDEWIG-JAMES Carol 15894 D70 5907NO 2:15:19 35'36 2069 1596 -473 1949
19 BAUD Sandrine 27612 D35 6203NO 2:16:20 35'52 1584 0
20 JANQUIN Sylvie 27605 D35 6203NO 2:21:59 37'21 1521 0
21 RIMETZ Marcelline 22235 D60 6208NO 2:39:48 42'03 1937 1351 -586 1937
TESSIER Jules 27300 H14 5907NO pm None 0 0
CHAPUS Maryline 23769 D40 6205NO pm None 0 0 0
BOUCHEZ Marie-Pascale 24241 D45 6208NO pm None 2650 0 2650
GARAT Frédérique 25929 D35 5909NO hors délai None 2093 0 2093